createdAt,value
2022-09-14T00:01:24.916Z,95172.38
2022-09-14T00:06:28.843Z,95166.03
2022-09-14T00:11:31.868Z,95148.97
2022-09-14T00:16:37.128Z,95123.28
2022-09-14T00:21:39.986Z,95120.50
2022-09-14T00:26:41.530Z,95132.34
2022-09-14T00:31:43.353Z,95124.03
2022-09-14T00:36:47.466Z,95120.50
2022-09-14T00:41:50.170Z,95124.50
2022-09-14T00:46:55.128Z,95109.88
2022-09-14T00:52:08.934Z,95104.81
2022-09-14T00:57:11.567Z,95108.81
2022-09-14T01:02:16.771Z,95108.81
2022-09-14T01:07:30.371Z,95106.53
2022-09-14T01:12:42.909Z,95102.19
2022-09-14T01:18:08.262Z,95098.03
2022-09-14T01:23:31.458Z,95096.53
2022-09-14T01:28:52.957Z,95093.44
2022-09-14T01:34:13.055Z,95100.19
2022-09-14T01:39:16.867Z,95086.81
2022-09-14T01:44:31.486Z,95072.94
2022-09-14T01:49:39.843Z,95086.50
2022-09-14T01:54:43.929Z,95079.28
2022-09-14T01:59:47.419Z,95069.75
2022-09-14T02:04:57.898Z,95072.50
2022-09-14T02:09:59.381Z,95069.75
2022-09-14T02:15:01.043Z,95060.66
2022-09-14T02:20:07.373Z,95048.84
2022-09-14T02:25:08.981Z,95043.00
2022-09-14T02:30:11.121Z,95033.13
2022-09-14T02:35:19.140Z,95031.59
2022-09-14T02:40:30.212Z,95017.47
2022-09-14T02:45:53.608Z,95014.38
2022-09-14T02:51:03.316Z,95031.78
2022-09-14T02:56:08.593Z,95018.69
2022-09-14T03:01:17.487Z,94997.00
2022-09-14T03:06:19.260Z,94987.94
2022-09-14T03:11:20.878Z,94957.94
2022-09-14T03:16:22.511Z,94965.97
2022-09-14T03:21:24.144Z,94957.34
2022-09-14T03:26:29.108Z,94962.13
2022-09-14T03:31:31.016Z,94956.59
2022-09-14T03:36:32.585Z,94974.41
2022-09-14T03:41:34.074Z,95003.78
2022-09-14T03:46:35.616Z,95023.47
2022-09-14T03:51:37.140Z,95103.00
2022-09-14T03:56:38.720Z,95070.84
2022-09-14T04:01:40.525Z,95043.34
2022-09-14T04:06:42.427Z,95027.19
2022-09-14T04:11:44.030Z,95009.81
2022-09-14T04:16:45.555Z,95000.13
2022-09-14T04:21:47.119Z,95002.91
2022-09-14T04:26:48.635Z,94968.63
2022-09-14T04:31:50.126Z,94983.22
2022-09-14T04:36:51.911Z,94981.25
2022-09-14T04:41:53.455Z,94971.88
2022-09-14T04:46:55.148Z,95063.63
2022-09-14T04:51:56.801Z,95051.78
2022-09-14T04:56:58.279Z,94985.56
2022-09-14T05:01:59.784Z,94972.97
2022-09-14T05:07:01.319Z,94943.28
2022-09-14T05:12:02.894Z,94945.28
2022-09-14T05:17:04.822Z,94937.31
2022-09-14T05:22:06.299Z,94943.28
2022-09-14T05:27:08.055Z,94975.13
2022-09-14T05:32:09.554Z,94972.50
2022-09-14T05:37:12.519Z,94957.75
2022-09-14T05:42:14.003Z,94953.59
2022-09-14T05:47:15.487Z,94975.13
2022-09-14T05:52:17.272Z,94946.56
2022-09-14T05:57:18.862Z,94924.28
2022-09-14T06:02:20.457Z,94923.03
2022-09-14T06:07:21.985Z,94915.81
2022-09-14T06:12:23.532Z,94910.13
2022-09-14T06:17:25.194Z,94905.19
2022-09-14T06:22:26.679Z,94889.66
2022-09-14T06:27:28.124Z,94884.75
2022-09-14T06:32:32.623Z,94881.03
2022-09-14T06:37:34.102Z,94880.59
2022-09-14T06:42:35.732Z,94892.72
2022-09-14T06:47:37.234Z,94876.88
2022-09-14T06:52:39.527Z,94878.88
2022-09-14T06:57:43.085Z,94897.50
2022-09-14T07:02:45.008Z,94884.88
2022-09-14T07:07:46.514Z,94875.81
2022-09-14T07:12:48.146Z,94867.53
2022-09-14T07:17:49.662Z,94874.56
2022-09-14T07:22:51.150Z,94875.38
2022-09-14T07:27:52.701Z,94915.31
2022-09-14T07:32:54.507Z,94898.25
2022-09-14T07:37:56.020Z,94886.44
2022-09-14T07:42:57.871Z,94894.41
2022-09-14T07:48:00.700Z,94874.63
2022-09-14T07:53:02.194Z,94881.53
2022-09-14T07:58:03.756Z,94890.91
2022-09-14T08:03:05.218Z,94882.28
2022-09-14T08:08:06.668Z,94909.97
2022-09-14T08:13:08.192Z,94910.25
2022-09-14T08:18:09.773Z,94913.03
2022-09-14T08:23:11.267Z,94911.78
2022-09-14T08:28:12.716Z,94909.63
2022-09-14T08:33:14.221Z,94912.53
2022-09-14T08:38:16.192Z,94911.47
2022-09-14T08:43:20.252Z,94894.53
2022-09-14T08:48:36.815Z,94890.19
2022-09-14T08:53:40.749Z,94884.63
2022-09-14T08:58:54.448Z,94889.16
2022-09-14T09:04:29.083Z,94890.69
2022-09-14T09:09:44.899Z,94881.72
2022-09-14T09:15:00.956Z,94887.00
2022-09-14T09:20:26.384Z,94904.34
2022-09-14T09:25:38.752Z,94906.13
2022-09-14T09:30:41.346Z,94917.63
2022-09-14T09:35:42.998Z,94937.13
2022-09-14T09:40:57.248Z,94926.81
2022-09-14T09:46:04.868Z,94925.28
2022-09-14T09:51:26.292Z,94922.22
2022-09-14T09:56:31.068Z,94917.56
2022-09-14T10:01:35.343Z,94912.84
2022-09-14T10:06:43.308Z,94905.66
2022-09-14T10:11:46.875Z,94915.81
2022-09-14T10:16:48.481Z,94909.19
2022-09-14T10:22:20.026Z,94917.28
2022-09-14T10:27:38.389Z,94906.81
2022-09-14T10:32:43.582Z,94915.53
2022-09-14T10:38:16.492Z,94900.91
2022-09-14T10:43:50.154Z,94892.66
2022-09-14T10:48:51.637Z,94881.94
2022-09-14T10:54:08.523Z,94865.47
2022-09-14T10:59:31.735Z,94874.25
2022-09-14T11:04:39.217Z,94871.38
2022-09-14T11:10:05.332Z,94875.47
2022-09-14T11:15:21.226Z,94870.34
2022-09-14T11:21:01.414Z,94859.38
2022-09-14T11:26:17.629Z,94869.28
2022-09-14T11:31:25.242Z,94866.34
2022-09-14T11:36:38.130Z,94856.91
2022-09-14T11:41:49.641Z,94843.31
2022-09-14T11:47:14.644Z,94840.63
2022-09-14T11:52:24.852Z,94822.66
2022-09-14T11:57:28.776Z,94814.44
2022-09-14T12:02:30.310Z,94828.22
2022-09-14T12:07:42.277Z,94820.31
2022-09-14T12:12:46.620Z,94819.59
2022-09-14T12:17:48.985Z,94836.84
2022-09-14T12:22:50.596Z,94843.44
2022-09-14T12:27:52.076Z,94828.09
2022-09-14T12:32:53.655Z,94819.59
2022-09-14T12:37:55.158Z,94815.13
2022-09-14T12:42:56.812Z,94826.56
2022-09-14T12:47:58.323Z,94822.50
2022-09-14T12:53:15.126Z,94824.34
2022-09-14T12:58:25.600Z,94833.53
2022-09-14T13:03:56.643Z,94826.69
2022-09-14T13:08:58.659Z,94835.59
2022-09-14T13:14:01.758Z,94840.41
2022-09-14T13:19:08.061Z,94852.09
2022-09-14T13:24:43.233Z,94849.56
2022-09-14T13:29:44.764Z,94838.72
2022-09-14T13:34:47.128Z,94823.06
2022-09-14T13:39:52.116Z,94816.25
2022-09-14T13:44:54.371Z,94819.34
2022-09-14T13:49:56.635Z,94823.97
2022-09-14T13:55:16.268Z,94807.25
2022-09-14T14:00:20.824Z,94797.13
2022-09-14T14:05:30.651Z,94788.50
2022-09-14T14:10:39.883Z,94789.81
2022-09-14T14:15:43.016Z,94779.91
2022-09-14T14:20:44.561Z,94760.91
2022-09-14T14:25:52.060Z,94745.66
2022-09-14T14:30:55.367Z,94747.44
2022-09-14T14:35:56.949Z,94748.19
2022-09-14T14:40:58.601Z,94746.41
2022-09-14T14:46:01.735Z,94743.91
2022-09-14T14:51:03.527Z,94737.28
2022-09-14T14:56:05.200Z,94732.97
2022-09-14T15:01:06.863Z,94726.88
2022-09-14T15:06:18.754Z,94727.91
2022-09-14T15:11:20.459Z,94719.78
2022-09-14T15:16:22.038Z,94717.00
2022-09-14T15:21:23.942Z,94704.03
2022-09-14T15:26:26.324Z,94687.06
2022-09-14T15:31:28.043Z,94689.59
2022-09-14T15:36:47.755Z,94683.00
2022-09-14T15:41:49.655Z,94687.31
2022-09-14T15:46:51.944Z,94695.94
2022-09-14T15:51:55.762Z,94688.06
2022-09-14T15:57:00.089Z,94807.66
2022-09-14T16:02:02.522Z,94803.16
2022-09-14T16:07:09.411Z,94771.25
2022-09-14T16:12:12.569Z,94777.88
2022-09-14T16:17:14.087Z,94798.53
2022-09-14T16:22:15.603Z,94796.84
2022-09-14T16:27:17.365Z,94812.19
2022-09-14T16:32:18.885Z,94796.00
2022-09-14T16:37:20.365Z,94770.69
2022-09-14T16:42:21.839Z,94773.19
2022-09-14T16:47:25.554Z,94774.94
2022-09-14T16:52:28.662Z,94771.63
2022-09-14T16:57:30.193Z,94779.22
2022-09-14T17:02:31.761Z,94760.69
2022-09-14T17:07:33.743Z,94742.44
2022-09-14T17:12:35.213Z,94725.97
2022-09-14T17:17:36.668Z,94723.16
2022-09-14T17:22:38.228Z,94698.34
2022-09-14T17:27:40.575Z,94708.88
2022-09-14T17:32:42.324Z,94733.84
2022-09-14T17:37:43.989Z,94744.41
2022-09-14T17:42:45.488Z,94761.78
2022-09-14T17:47:46.985Z,94766.78
2022-09-14T17:52:48.454Z,94771.03
2022-09-14T17:57:50.243Z,94775.72
2022-09-14T18:02:52.674Z,94781.97
2022-09-14T18:07:54.587Z,94781.44
2022-09-14T18:12:56.089Z,94783.38
2022-09-14T18:17:57.783Z,94811.34
2022-09-14T18:22:59.574Z,94833.50
2022-09-14T18:28:01.158Z,94836.09
2022-09-14T18:33:02.848Z,94838.69
2022-09-14T18:38:06.500Z,94843.09
2022-09-14T18:43:08.059Z,94845.00
2022-09-14T18:48:09.662Z,94848.16
2022-09-14T18:53:11.211Z,94842.72
2022-09-14T18:58:12.687Z,94842.63
2022-09-14T19:03:14.167Z,94852.41
2022-09-14T19:08:15.817Z,94848.84
2022-09-14T19:13:17.322Z,94845.00
2022-09-14T19:18:18.878Z,94831.34
2022-09-14T19:23:20.616Z,94827.50
2022-09-14T19:28:22.059Z,94817.84
2022-09-14T19:33:23.778Z,94835.91
2022-09-14T19:38:25.342Z,94828.56
2022-09-14T19:43:27.349Z,94821.41
2022-09-14T19:48:28.826Z,94828.16
2022-09-14T19:53:33.171Z,94824.34
2022-09-14T19:58:40.250Z,94823.47
2022-09-14T20:03:43.700Z,94832.72
2022-09-14T20:08:46.542Z,94826.69
2022-09-14T20:13:48.506Z,94820.69
2022-09-14T20:18:50.938Z,94802.81
2022-09-14T20:24:15.244Z,94803.13
2022-09-14T20:29:18.913Z,94810.19
2022-09-14T20:34:21.018Z,94799.59
2022-09-14T20:39:23.738Z,94803.25
2022-09-14T20:44:25.461Z,94799.63
2022-09-14T20:49:26.979Z,94789.69
2022-09-14T20:54:28.646Z,94783.56
2022-09-14T20:59:30.504Z,94792.66
2022-09-14T21:04:34.411Z,94794.16
2022-09-14T21:09:36.071Z,94798.19
2022-09-14T21:14:37.573Z,94797.91
2022-09-14T21:19:39.167Z,94805.66
2022-09-14T21:24:40.660Z,94817.66
2022-09-14T21:29:43.048Z,94793.69
2022-09-14T21:34:45.321Z,94799.72
2022-09-14T21:39:47.620Z,94800.84
2022-09-14T21:44:49.243Z,94809.16
2022-09-14T21:49:50.714Z,94804.84
2022-09-14T21:54:52.259Z,94799.03
2022-09-14T21:59:53.723Z,94811.81
2022-09-14T22:04:56.240Z,94809.50
2022-09-14T22:09:57.731Z,94800.13
2022-09-14T22:14:59.240Z,94814.94
2022-09-14T22:20:01.186Z,94824.22
2022-09-14T22:25:03.503Z,94814.03
2022-09-14T22:30:05.430Z,94824.38
2022-09-14T22:35:07.294Z,94824.84
2022-09-14T22:40:09.467Z,94817.78
2022-09-14T22:45:11.062Z,94811.34
2022-09-14T22:50:13.097Z,94820.63
2022-09-14T22:55:14.914Z,94810.94
2022-09-14T23:00:16.436Z,94796.81
2022-09-14T23:05:19.672Z,94797.75
2022-09-14T23:10:21.607Z,94798.22
2022-09-14T23:15:25.350Z,94789.31
2022-09-14T23:20:26.913Z,94797.31
2022-09-14T23:25:28.387Z,94792.44
2022-09-14T23:30:31.164Z,94799.38
2022-09-14T23:35:35.783Z,94799.06
2022-09-14T23:40:39.212Z,94804.59
2022-09-14T23:45:40.712Z,94801.84
2022-09-14T23:50:42.467Z,94816.75
2022-09-14T23:55:44.015Z,94826.56
